createdAt,value
2022-10-15T00:05:02.247Z,10.90
2022-10-15T00:10:09.475Z,10.70
2022-10-15T00:15:16.775Z,10.80
2022-10-15T00:20:23.883Z,10.90
2022-10-15T00:25:30.900Z,10.90
2022-10-15T00:30:37.901Z,10.80
2022-10-15T00:35:44.819Z,10.80
2022-10-15T00:40:51.660Z,10.90
2022-10-15T00:45:58.391Z,10.90
2022-10-15T00:51:06.910Z,10.80
2022-10-15T00:56:16.537Z,10.80
2022-10-15T01:01:25.887Z,10.90
2022-10-15T01:06:33.319Z,11.10
2022-10-15T01:11:54.501Z,11.10
2022-10-15T01:17:22.072Z,11.20
2022-10-15T01:22:58.823Z,11.20
2022-10-15T01:28:35.150Z,11.30
2022-10-15T01:34:10.241Z,11.00
2022-10-15T01:39:37.646Z,10.90
2022-10-15T01:44:51.250Z,11.00
2022-10-15T01:49:59.332Z,11.00
2022-10-15T01:55:10.307Z,11.00
2022-10-15T02:00:18.107Z,10.90
2022-10-15T02:05:29.017Z,11.00
2022-10-15T02:11:10.231Z,11.10
2022-10-15T02:16:49.411Z,11.20
2022-10-15T02:22:00.750Z,11.20
2022-10-15T02:27:08.436Z,11.30
2022-10-15T02:32:18.767Z,11.30
2022-10-15T02:37:28.629Z,11.30
2022-10-15T02:42:35.333Z,11.20
2022-10-15T02:47:42.056Z,11.20
2022-10-15T02:52:48.807Z,11.30
2022-10-15T02:57:55.648Z,11.20
2022-10-15T03:03:02.370Z,11.10
2022-10-15T03:08:09.297Z,10.90
2022-10-15T03:13:16.092Z,10.90
2022-10-15T03:18:23.038Z,11.00
2022-10-15T03:23:30.901Z,10.90
2022-10-15T03:28:37.738Z,11.00
2022-10-15T03:33:44.491Z,11.00
2022-10-15T03:38:51.195Z,10.90
2022-10-15T03:44:02.743Z,11.00
2022-10-15T03:49:09.499Z,11.00
2022-10-15T03:54:16.355Z,10.90
2022-10-15T03:59:23.080Z,11.00
2022-10-15T04:04:29.794Z,11.00
2022-10-15T04:09:36.512Z,11.00
2022-10-15T04:14:43.246Z,11.10
2022-10-15T04:19:49.937Z,11.20
2022-10-15T04:24:56.676Z,11.20
2022-10-15T04:30:03.525Z,11.20
2022-10-15T04:35:10.474Z,11.20
2022-10-15T04:40:17.501Z,11.30
2022-10-15T04:50:30.877Z,11.30
2022-10-15T04:55:37.663Z,11.20
2022-10-15T05:00:44.402Z,11.30
2022-10-15T05:05:51.195Z,11.40
2022-10-15T05:10:59.528Z,11.40
2022-10-15T05:16:24.536Z,11.40
2022-10-15T05:21:32.254Z,11.20
2022-10-15T05:26:38.998Z,11.30
2022-10-15T05:31:46.323Z,11.10
2022-10-15T05:36:53.034Z,11.00
2022-10-15T05:41:59.788Z,11.00
2022-10-15T05:47:06.994Z,11.10
2022-10-15T05:52:13.764Z,11.20
2022-10-15T05:57:20.619Z,11.40
2022-10-15T06:02:27.743Z,11.40
2022-10-15T06:07:34.999Z,11.30
2022-10-15T06:12:42.983Z,11.30
2022-10-15T06:17:49.701Z,11.10
2022-10-15T06:23:01.211Z,11.30
2022-10-15T06:28:09.850Z,11.30
2022-10-15T06:33:17.361Z,11.30
2022-10-15T06:38:25.263Z,11.30
2022-10-15T06:43:34.859Z,11.20
2022-10-15T06:48:40.283Z,11.40
2022-10-15T06:53:47.050Z,11.40
2022-10-15T06:58:53.811Z,11.50
2022-10-15T07:04:00.545Z,11.50
2022-10-15T07:09:07.960Z,11.40
2022-10-15T07:14:14.826Z,11.40
2022-10-15T07:19:21.651Z,11.50
2022-10-15T07:24:28.535Z,11.50
2022-10-15T07:29:35.431Z,11.50
2022-10-15T07:34:42.449Z,11.50
2022-10-15T07:39:49.218Z,11.50
2022-10-15T07:44:56.918Z,11.50
2022-10-15T07:50:03.985Z,11.60
2022-10-15T07:55:11.803Z,11.70
2022-10-15T08:00:18.915Z,11.70
2022-10-15T08:05:25.797Z,11.80
2022-10-15T08:10:32.833Z,11.80
2022-10-15T08:15:44.014Z,11.80
2022-10-15T08:20:51.569Z,11.90
2022-10-15T08:26:01.213Z,12.10
2022-10-15T08:31:08.824Z,12.20
2022-10-15T08:36:15.942Z,12.20
2022-10-15T08:41:32.972Z,12.10
2022-10-15T08:46:49.632Z,12.10
2022-10-15T08:52:01.285Z,12.20
2022-10-15T08:57:27.315Z,12.30
2022-10-15T09:02:41.688Z,12.40
2022-10-15T09:08:12.087Z,12.60
2022-10-15T09:13:43.563Z,12.60
2022-10-15T09:18:54.082Z,12.60
2022-10-15T09:24:06.205Z,12.60
2022-10-15T09:29:38.262Z,12.60
2022-10-15T09:35:01.897Z,12.70
2022-10-15T09:40:31.087Z,12.80
2022-10-15T09:45:37.843Z,12.90
2022-10-15T09:51:03.858Z,13.00
2022-10-15T09:56:25.648Z,13.00
2022-10-15T10:01:35.109Z,13.00
2022-10-15T10:06:55.549Z,12.70
2022-10-15T10:12:09.893Z,12.70
2022-10-15T10:17:22.652Z,12.70
2022-10-15T10:22:29.427Z,12.80
2022-10-15T10:27:36.667Z,12.90
2022-10-15T10:32:43.864Z,13.10
2022-10-15T10:37:52.083Z,13.30
2022-10-15T10:43:23.551Z,13.20
2022-10-15T10:48:40.382Z,13.20
2022-10-15T10:54:00.272Z,13.20
2022-10-15T10:59:26.402Z,13.10
2022-10-15T11:04:38.980Z,13.20
2022-10-15T11:10:08.312Z,13.20
2022-10-15T11:15:34.266Z,13.20
2022-10-15T11:21:09.327Z,13.20
2022-10-15T11:26:41.439Z,13.20
2022-10-15T11:32:02.908Z,13.20
2022-10-15T11:37:19.617Z,13.20
2022-10-15T11:42:52.843Z,13.00
2022-10-15T11:48:10.249Z,13.10
2022-10-15T11:53:42.402Z,13.10
2022-10-15T12:04:21.979Z,13.10
2022-10-15T12:09:38.273Z,13.30
2022-10-15T12:15:10.939Z,13.30
2022-10-15T12:20:21.383Z,13.20
2022-10-15T12:25:43.487Z,13.40
2022-10-15T12:31:00.462Z,13.40
2022-10-15T12:36:24.910Z,13.30
2022-10-15T12:41:49.703Z,13.20
2022-10-15T12:46:57.307Z,13.20
2022-10-15T12:52:07.860Z,13.20
2022-10-15T12:57:39.141Z,13.20
2022-10-15T13:02:48.661Z,13.30
2022-10-15T13:07:56.868Z,13.20
2022-10-15T13:13:11.135Z,13.10
2022-10-15T13:18:18.612Z,13.20
2022-10-15T13:23:31.016Z,13.00
2022-10-15T13:28:42.392Z,13.10
2022-10-15T13:33:53.167Z,13.20
2022-10-15T13:39:06.883Z,13.30
2022-10-15T13:44:25.495Z,13.50
2022-10-15T13:49:32.561Z,13.60
2022-10-15T13:54:39.563Z,13.60
2022-10-15T13:59:48.298Z,13.40
2022-10-15T14:04:55.628Z,13.50
2022-10-15T14:10:02.488Z,13.40
2022-10-15T14:15:51.123Z,13.30
2022-10-15T14:20:58.760Z,13.40
2022-10-15T14:26:06.232Z,13.40
2022-10-15T14:31:17.497Z,13.40
2022-10-15T14:36:31.293Z,13.20
2022-10-15T14:41:38.446Z,13.20
2022-10-15T14:46:52.487Z,13.20
2022-10-15T14:52:03.677Z,13.20
2022-10-15T14:57:26.051Z,13.20
2022-10-15T15:02:33.791Z,13.20
2022-10-15T15:07:42.197Z,13.20
2022-10-15T15:12:53.201Z,13.30
2022-10-15T15:18:00.202Z,13.40
2022-10-15T15:23:07.790Z,13.40
2022-10-15T15:28:23.915Z,13.20
2022-10-15T15:33:31.276Z,13.30
2022-10-15T15:38:38.123Z,13.10
2022-10-15T15:43:46.329Z,13.10
2022-10-15T15:48:53.221Z,12.90
2022-10-15T15:54:06.656Z,12.70
2022-10-15T15:59:13.630Z,12.70
2022-10-15T16:04:21.220Z,12.60
2022-10-15T16:09:29.879Z,12.60
2022-10-15T16:14:37.303Z,12.40
2022-10-15T16:19:47.838Z,12.50
2022-10-15T16:24:55.486Z,12.30
2022-10-15T16:30:03.845Z,12.10
2022-10-15T16:35:11.368Z,12.20
2022-10-15T16:40:19.317Z,12.10
2022-10-15T16:45:26.474Z,12.20
2022-10-15T16:50:33.619Z,12.20
2022-10-15T16:55:40.497Z,12.30
2022-10-15T17:00:47.342Z,12.40
2022-10-15T17:06:00.322Z,12.40
2022-10-15T17:11:07.206Z,12.50
2022-10-15T17:16:20.683Z,12.60
2022-10-15T17:21:30.588Z,12.40
2022-10-15T17:26:41.006Z,12.30
2022-10-15T17:31:49.175Z,12.20
2022-10-15T17:36:56.721Z,12.30
2022-10-15T17:42:04.196Z,12.30
2022-10-15T17:47:11.211Z,12.30
2022-10-15T17:52:17.900Z,12.30
2022-10-15T17:57:25.402Z,12.30
2022-10-15T18:02:32.751Z,12.20
2022-10-15T18:07:39.732Z,12.10
2022-10-15T18:12:46.812Z,12.20
2022-10-15T18:17:54.464Z,12.20
2022-10-15T18:23:01.922Z,12.20
2022-10-15T18:28:10.776Z,12.20
2022-10-15T18:33:18.208Z,12.20
2022-10-15T18:38:25.216Z,12.10
2022-10-15T18:43:32.568Z,12.00
2022-10-15T18:48:40.176Z,12.10
2022-10-15T18:53:46.936Z,12.00
2022-10-15T18:58:53.781Z,11.90
2022-10-15T19:04:04.523Z,11.80
2022-10-15T19:09:15.793Z,11.80
2022-10-15T19:14:23.947Z,11.80
2022-10-15T19:19:31.898Z,11.70
2022-10-15T19:24:39.587Z,11.70
2022-10-15T19:29:46.937Z,11.70
2022-10-15T19:34:54.036Z,11.80
2022-10-15T19:40:01.041Z,11.70
2022-10-15T19:45:08.652Z,11.60
2022-10-15T19:50:15.579Z,11.60
2022-10-15T19:55:23.035Z,11.70
2022-10-15T20:00:29.763Z,11.60
2022-10-15T20:05:36.450Z,11.50
2022-10-15T20:10:48.078Z,11.60
2022-10-15T20:15:56.738Z,11.60
2022-10-15T20:21:08.695Z,11.50
2022-10-15T20:26:17.604Z,11.70
2022-10-15T20:31:26.200Z,11.70
2022-10-15T20:36:33.328Z,11.60
2022-10-15T20:41:40.635Z,11.60
2022-10-15T20:46:54.288Z,11.70
2022-10-15T20:52:01.811Z,11.80
2022-10-15T20:57:09.146Z,11.80
2022-10-15T21:02:15.994Z,11.90
2022-10-15T21:07:24.575Z,11.70
2022-10-15T21:12:31.368Z,11.60
2022-10-15T21:17:38.393Z,11.70
2022-10-15T21:22:45.290Z,11.60
2022-10-15T21:27:52.494Z,11.60
2022-10-15T21:32:59.639Z,11.60
2022-10-15T21:38:06.528Z,11.60
2022-10-15T21:43:13.623Z,11.60
2022-10-15T21:48:20.520Z,11.60
2022-10-15T21:53:27.548Z,11.50
2022-10-15T21:58:35.155Z,11.60
2022-10-15T22:03:43.566Z,11.50
2022-10-15T22:08:51.387Z,11.50
2022-10-15T22:14:03.934Z,11.40
2022-10-15T22:19:14.999Z,11.40
2022-10-15T22:24:23.886Z,11.60
2022-10-15T22:29:34.481Z,11.40
2022-10-15T22:34:40.460Z,11.20
2022-10-15T22:39:47.693Z,11.30
2022-10-15T22:44:54.732Z,11.30
2022-10-15T22:55:10.026Z,11.20
2022-10-15T23:00:17.336Z,11.20
2022-10-15T23:05:24.804Z,11.30
2022-10-15T23:10:31.741Z,11.30
2022-10-15T23:15:38.974Z,11.40
2022-10-15T23:20:45.684Z,11.30
2022-10-15T23:25:52.692Z,11.20
2022-10-15T23:30:59.585Z,11.30
2022-10-15T23:36:07.534Z,11.20
2022-10-15T23:41:15.914Z,11.20
2022-10-15T23:46:23.309Z,11.40
2022-10-15T23:51:34.424Z,11.30
2022-10-15T23:56:41.134Z,11.50
